sensor_id;sensor_type;location;lat;lon;timestamp;P1;durP1;ratioP1;P2;durP2;ratioP2
42084;SDS011;27746;52.228;20.890;2023-03-23T00:00:58;47.38;;;26.58;;
42084;SDS011;27746;52.228;20.890;2023-03-23T00:03:25;49.83;;;27.40;;
42084;SDS011;27746;52.228;20.890;2023-03-23T00:05:56;47.38;;;25.77;;
42084;SDS011;27746;52.228;20.890;2023-03-23T00:08:25;48.17;;;25.73;;
42084;SDS011;27746;52.228;20.890;2023-03-23T00:10:52;43.97;;;25.35;;
42084;SDS011;27746;52.228;20.890;2023-03-23T00:13:21;43.67;;;25.75;;
42084;SDS011;27746;52.228;20.890;2023-03-23T00:15:49;47.20;;;26.67;;
42084;SDS011;27746;52.228;20.890;2023-03-23T00:18:17;45.38;;;24.70;;
42084;SDS011;27746;52.228;20.890;2023-03-23T00:20:47;47.63;;;26.33;;
42084;SDS011;27746;52.228;20.890;2023-03-23T00:23:16;41.45;;;22.98;;
42084;SDS011;27746;52.228;20.890;2023-03-23T00:25:45;47.72;;;25.88;;
42084;SDS011;27746;52.228;20.890;2023-03-23T00:28:13;45.42;;;25.77;;
42084;SDS011;27746;52.228;20.890;2023-03-23T00:30:40;48.78;;;25.77;;
42084;SDS011;27746;52.228;20.890;2023-03-23T00:33:09;44.33;;;24.65;;
42084;SDS011;27746;52.228;20.890;2023-03-23T00:35:41;47.22;;;27.65;;
42084;SDS011;27746;52.228;20.890;2023-03-23T00:38:09;44.20;;;25.20;;
42084;SDS011;27746;52.228;20.890;2023-03-23T00:40:40;46.95;;;25.60;;
42084;SDS011;27746;52.228;20.890;2023-03-23T00:43:07;42.22;;;24.98;;
42084;SDS011;27746;52.228;20.890;2023-03-23T00:45:38;38.35;;;24.92;;
42084;SDS011;27746;52.228;20.890;2023-03-23T00:48:06;42.65;;;24.17;;
42084;SDS011;27746;52.228;20.890;2023-03-23T00:50:32;45.97;;;27.38;;
42084;SDS011;27746;52.228;20.890;2023-03-23T00:53:00;38.65;;;23.35;;
42084;SDS011;27746;52.228;20.890;2023-03-23T00:55:27;41.15;;;24.90;;
42084;SDS011;27746;52.228;20.890;2023-03-23T00:57:56;50.53;;;26.52;;
42084;SDS011;27746;52.228;20.890;2023-03-23T01:00:23;46.30;;;25.77;;
42084;SDS011;27746;52.228;20.890;2023-03-23T01:02:52;44.13;;;24.58;;
42084;SDS011;27746;52.228;20.890;2023-03-23T01:05:19;42.60;;;23.80;;
42084;SDS011;27746;52.228;20.890;2023-03-23T01:07:46;41.85;;;25.13;;
42084;SDS011;27746;52.228;20.890;2023-03-23T01:10:14;42.45;;;26.00;;
42084;SDS011;27746;52.228;20.890;2023-03-23T01:12:43;44.97;;;25.55;;
42084;SDS011;27746;52.228;20.890;2023-03-23T01:15:15;35.90;;;22.27;;
42084;SDS011;27746;52.228;20.890;2023-03-23T01:17:46;46.60;;;25.23;;
42084;SDS011;27746;52.228;20.890;2023-03-23T01:20:14;42.40;;;23.38;;
42084;SDS011;27746;52.228;20.890;2023-03-23T01:22:42;42.63;;;24.55;;
42084;SDS011;27746;52.228;20.890;2023-03-23T01:25:09;41.13;;;23.92;;
42084;SDS011;27746;52.228;20.890;2023-03-23T01:27:40;40.80;;;24.95;;
42084;SDS011;27746;52.228;20.890;2023-03-23T01:30:07;41.72;;;23.33;;
42084;SDS011;27746;52.228;20.890;2023-03-23T01:32:38;44.15;;;24.85;;
42084;SDS011;27746;52.228;20.890;2023-03-23T01:35:05;40.38;;;22.75;;
42084;SDS011;27746;52.228;20.890;2023-03-23T01:37:32;41.13;;;22.20;;
42084;SDS011;27746;52.228;20.890;2023-03-23T01:40:01;38.80;;;21.98;;
42084;SDS011;27746;52.228;20.890;2023-03-23T01:42:30;39.03;;;22.20;;
42084;SDS011;27746;52.228;20.890;2023-03-23T01:48:05;37.25;;;21.25;;
42084;SDS011;27746;52.228;20.890;2023-03-23T01:50:38;38.35;;;21.38;;
42084;SDS011;27746;52.228;20.890;2023-03-23T01:53:13;36.63;;;20.80;;
42084;SDS011;27746;52.228;20.890;2023-03-23T01:55:41;34.25;;;21.98;;
42084;SDS011;27746;52.228;20.890;2023-03-23T01:58:09;34.50;;;19.40;;
42084;SDS011;27746;52.228;20.890;2023-03-23T02:00:38;35.92;;;21.85;;
42084;SDS011;27746;52.228;20.890;2023-03-23T02:03:09;37.25;;;20.58;;
42084;SDS011;27746;52.228;20.890;2023-03-23T02:05:39;36.67;;;20.80;;
42084;SDS011;27746;52.228;20.890;2023-03-23T02:08:08;35.13;;;20.70;;
42084;SDS011;27746;52.228;20.890;2023-03-23T02:10:36;40.05;;;21.85;;
42084;SDS011;27746;52.228;20.890;2023-03-23T02:13:05;36.38;;;20.60;;
42084;SDS011;27746;52.228;20.890;2023-03-23T02:15:36;35.55;;;20.70;;
42084;SDS011;27746;52.228;20.890;2023-03-23T02:18:15;39.15;;;21.27;;
42084;SDS011;27746;52.228;20.890;2023-03-23T02:21:13;38.45;;;20.42;;
42084;SDS011;27746;52.228;20.890;2023-03-23T02:26:57;36.25;;;21.05;;
42084;SDS011;27746;52.228;20.890;2023-03-23T02:29:44;33.17;;;19.63;;
42084;SDS011;27746;52.228;20.890;2023-03-23T02:32:39;33.58;;;21.10;;
42084;SDS011;27746;52.228;20.890;2023-03-23T02:35:28;36.83;;;19.58;;
42084;SDS011;27746;52.228;20.890;2023-03-23T02:37:59;39.25;;;20.38;;
42084;SDS011;27746;52.228;20.890;2023-03-23T02:40:30;37.00;;;20.65;;
42084;SDS011;27746;52.228;20.890;2023-03-23T02:43:02;28.90;;;18.65;;
42084;SDS011;27746;52.228;20.890;2023-03-23T02:45:35;34.58;;;18.92;;
42084;SDS011;27746;52.228;20.890;2023-03-23T02:48:04;32.38;;;17.63;;
42084;SDS011;27746;52.228;20.890;2023-03-23T02:50:42;32.28;;;19.63;;
42084;SDS011;27746;52.228;20.890;2023-03-23T02:53:13;33.83;;;19.48;;
42084;SDS011;27746;52.228;20.890;2023-03-23T02:55:43;33.03;;;19.70;;
42084;SDS011;27746;52.228;20.890;2023-03-23T02:58:11;35.00;;;19.30;;
42084;SDS011;27746;52.228;20.890;2023-03-23T03:00:38;32.95;;;19.02;;
42084;SDS011;27746;52.228;20.890;2023-03-23T03:03:07;34.00;;;19.05;;
42084;SDS011;27746;52.228;20.890;2023-03-23T03:05:42;29.80;;;17.20;;
42084;SDS011;27746;52.228;20.890;2023-03-23T03:08:15;29.55;;;17.92;;
42084;SDS011;27746;52.228;20.890;2023-03-23T03:10:50;26.88;;;16.50;;
42084;SDS011;27746;52.228;20.890;2023-03-23T03:13:27;28.42;;;16.52;;
42084;SDS011;27746;52.228;20.890;2023-03-23T03:16:01;32.53;;;16.33;;
42084;SDS011;27746;52.228;20.890;2023-03-23T03:18:34;32.30;;;16.65;;
42084;SDS011;27746;52.228;20.890;2023-03-23T03:21:07;26.98;;;16.77;;
42084;SDS011;27746;52.228;20.890;2023-03-23T03:23:39;26.83;;;15.68;;
42084;SDS011;27746;52.228;20.890;2023-03-23T03:26:09;30.77;;;17.08;;
42084;SDS011;27746;52.228;20.890;2023-03-23T03:28:37;29.52;;;16.75;;
42084;SDS011;27746;52.228;20.890;2023-03-23T03:31:06;29.60;;;16.88;;
42084;SDS011;27746;52.228;20.890;2023-03-23T03:33:37;29.90;;;16.30;;
42084;SDS011;27746;52.228;20.890;2023-03-23T03:36:04;28.45;;;16.35;;
42084;SDS011;27746;52.228;20.890;2023-03-23T03:38:41;29.48;;;17.80;;
42084;SDS011;27746;52.228;20.890;2023-03-23T03:41:09;31.42;;;17.35;;
42084;SDS011;27746;52.228;20.890;2023-03-23T03:43:36;29.48;;;16.90;;
42084;SDS011;27746;52.228;20.890;2023-03-23T03:46:03;30.52;;;17.20;;
42084;SDS011;27746;52.228;20.890;2023-03-23T03:48:30;31.40;;;17.30;;
42084;SDS011;27746;52.228;20.890;2023-03-23T03:50:57;28.80;;;17.40;;
42084;SDS011;27746;52.228;20.890;2023-03-23T03:53:26;30.98;;;16.83;;
42084;SDS011;27746;52.228;20.890;2023-03-23T03:55:53;28.83;;;17.23;;
42084;SDS011;27746;52.228;20.890;2023-03-23T03:58:24;26.83;;;15.88;;
42084;SDS011;27746;52.228;20.890;2023-03-23T04:00:56;25.27;;;15.70;;
42084;SDS011;27746;52.228;20.890;2023-03-23T04:03:23;27.10;;;16.65;;
42084;SDS011;27746;52.228;20.890;2023-03-23T04:05:50;28.15;;;15.50;;
42084;SDS011;27746;52.228;20.890;2023-03-23T04:08:17;25.58;;;16.45;;
42084;SDS011;27746;52.228;20.890;2023-03-23T04:10:48;30.13;;;18.85;;
42084;SDS011;27746;52.228;20.890;2023-03-23T04:13:15;30.25;;;18.65;;
42084;SDS011;27746;52.228;20.890;2023-03-23T04:15:43;29.80;;;16.67;;
42084;SDS011;27746;52.228;20.890;2023-03-23T04:18:10;33.28;;;16.83;;
42084;SDS011;27746;52.228;20.890;2023-03-23T04:20:40;26.30;;;15.75;;
42084;SDS011;27746;52.228;20.890;2023-03-23T04:23:07;24.52;;;14.45;;
42084;SDS011;27746;52.228;20.890;2023-03-23T04:25:34;27.25;;;15.13;;
42084;SDS011;27746;52.228;20.890;2023-03-23T04:28:03;22.33;;;14.30;;
42084;SDS011;27746;52.228;20.890;2023-03-23T04:30:30;27.85;;;15.65;;
42084;SDS011;27746;52.228;20.890;2023-03-23T04:32:57;27.27;;;15.02;;
42084;SDS011;27746;52.228;20.890;2023-03-23T04:35:26;25.65;;;14.52;;
42084;SDS011;27746;52.228;20.890;2023-03-23T04:37:54;25.15;;;14.35;;
42084;SDS011;27746;52.228;20.890;2023-03-23T04:40:22;24.48;;;15.35;;
42084;SDS011;27746;52.228;20.890;2023-03-23T04:42:49;24.42;;;15.23;;
42084;SDS011;27746;52.228;20.890;2023-03-23T04:45:19;25.40;;;14.20;;
42084;SDS011;27746;52.228;20.890;2023-03-23T04:47:48;28.48;;;15.25;;
42084;SDS011;27746;52.228;20.890;2023-03-23T04:50:18;21.75;;;13.15;;
42084;SDS011;27746;52.228;20.890;2023-03-23T04:52:46;27.23;;;15.93;;
42084;SDS011;27746;52.228;20.890;2023-03-23T04:55:13;25.95;;;15.02;;
42084;SDS011;27746;52.228;20.890;2023-03-23T04:57:40;25.92;;;15.38;;
42084;SDS011;27746;52.228;20.890;2023-03-23T05:00:08;23.58;;;14.27;;
42084;SDS011;27746;52.228;20.890;2023-03-23T05:02:40;28.90;;;14.35;;
42084;SDS011;27746;52.228;20.890;2023-03-23T05:05:08;25.00;;;14.35;;
42084;SDS011;27746;52.228;20.890;2023-03-23T05:07:37;25.65;;;13.75;;
42084;SDS011;27746;52.228;20.890;2023-03-23T05:10:05;25.20;;;14.30;;
42084;SDS011;27746;52.228;20.890;2023-03-23T05:12:33;22.50;;;13.82;;
42084;SDS011;27746;52.228;20.890;2023-03-23T05:15:01;26.95;;;15.15;;
42084;SDS011;27746;52.228;20.890;2023-03-23T05:17:29;26.08;;;13.93;;
42084;SDS011;27746;52.228;20.890;2023-03-23T05:19:58;24.45;;;14.75;;
42084;SDS011;27746;52.228;20.890;2023-03-23T05:22:26;25.75;;;13.75;;
42084;SDS011;27746;52.228;20.890;2023-03-23T05:24:53;20.63;;;13.35;;
42084;SDS011;27746;52.228;20.890;2023-03-23T05:27:21;25.20;;;13.80;;
42084;SDS011;27746;52.228;20.890;2023-03-23T05:29:48;24.58;;;13.57;;
42084;SDS011;27746;52.228;20.890;2023-03-23T05:32:16;25.13;;;12.88;;
42084;SDS011;27746;52.228;20.890;2023-03-23T05:34:44;24.65;;;14.50;;
42084;SDS011;27746;52.228;20.890;2023-03-23T05:37:12;23.23;;;12.73;;
42084;SDS011;27746;52.228;20.890;2023-03-23T05:39:39;23.77;;;12.43;;
42084;SDS011;27746;52.228;20.890;2023-03-23T05:42:06;22.92;;;11.85;;
42084;SDS011;27746;52.228;20.890;2023-03-23T05:44:34;24.90;;;12.68;;
42084;SDS011;27746;52.228;20.890;2023-03-23T05:47:01;25.05;;;12.00;;
42084;SDS011;27746;52.228;20.890;2023-03-23T05:49:29;24.00;;;13.00;;
42084;SDS011;27746;52.228;20.890;2023-03-23T05:51:56;22.58;;;12.52;;
42084;SDS011;27746;52.228;20.890;2023-03-23T05:54:25;23.10;;;11.63;;
42084;SDS011;27746;52.228;20.890;2023-03-23T05:56:51;24.35;;;11.98;;
42084;SDS011;27746;52.228;20.890;2023-03-23T05:59:19;22.23;;;11.95;;
42084;SDS011;27746;52.228;20.890;2023-03-23T06:01:46;25.17;;;13.00;;
42084;SDS011;27746;52.228;20.890;2023-03-23T06:04:13;20.77;;;11.90;;
42084;SDS011;27746;52.228;20.890;2023-03-23T06:06:40;22.38;;;12.45;;
42084;SDS011;27746;52.228;20.890;2023-03-23T06:09:09;23.63;;;11.98;;
42084;SDS011;27746;52.228;20.890;2023-03-23T06:11:38;20.73;;;11.95;;
42084;SDS011;27746;52.228;20.890;2023-03-23T06:14:05;22.17;;;11.85;;
42084;SDS011;27746;52.228;20.890;2023-03-23T06:16:32;24.15;;;12.25;;
42084;SDS011;27746;52.228;20.890;2023-03-23T06:18:59;20.70;;;11.20;;
42084;SDS011;27746;52.228;20.890;2023-03-23T06:21:29;27.15;;;11.30;;
42084;SDS011;27746;52.228;20.890;2023-03-23T06:23:56;20.15;;;11.13;;
42084;SDS011;27746;52.228;20.890;2023-03-23T06:26:25;19.48;;;10.98;;
42084;SDS011;27746;52.228;20.890;2023-03-23T06:28:56;20.27;;;10.98;;
42084;SDS011;27746;52.228;20.890;2023-03-23T06:31:23;20.77;;;11.75;;
42084;SDS011;27746;52.228;20.890;2023-03-23T06:33:51;20.15;;;10.95;;
42084;SDS011;27746;52.228;20.890;2023-03-23T06:36:18;19.27;;;11.02;;
42084;SDS011;27746;52.228;20.890;2023-03-23T06:38:45;21.92;;;11.30;;
42084;SDS011;27746;52.228;20.890;2023-03-23T06:41:12;20.15;;;10.85;;
42084;SDS011;27746;52.228;20.890;2023-03-23T06:43:41;20.08;;;11.55;;
42084;SDS011;27746;52.228;20.890;2023-03-23T06:46:10;22.80;;;11.05;;
42084;SDS011;27746;52.228;20.890;2023-03-23T06:48:37;19.75;;;10.38;;
42084;SDS011;27746;52.228;20.890;2023-03-23T06:51:05;22.10;;;10.63;;
42084;SDS011;27746;52.228;20.890;2023-03-23T06:53:32;23.65;;;11.75;;
42084;SDS011;27746;52.228;20.890;2023-03-23T06:55:59;23.40;;;9.77;;
42084;SDS011;27746;52.228;20.890;2023-03-23T06:58:26;17.15;;;10.20;;
42084;SDS011;27746;52.228;20.890;2023-03-23T07:00:54;18.48;;;10.20;;
42084;SDS011;27746;52.228;20.890;2023-03-23T07:03:24;24.83;;;10.50;;
42084;SDS011;27746;52.228;20.890;2023-03-23T07:05:52;17.83;;;9.85;;
42084;SDS011;27746;52.228;20.890;2023-03-23T07:08:20;20.85;;;9.70;;
42084;SDS011;27746;52.228;20.890;2023-03-23T07:10:47;19.98;;;9.55;;
42084;SDS011;27746;52.228;20.890;2023-03-23T07:13:16;18.58;;;10.73;;
42084;SDS011;27746;52.228;20.890;2023-03-23T07:15:43;22.38;;;10.20;;
42084;SDS011;27746;52.228;20.890;2023-03-23T07:18:10;31.27;;;10.50;;
42084;SDS011;27746;52.228;20.890;2023-03-23T07:20:38;17.85;;;9.30;;
42084;SDS011;27746;52.228;20.890;2023-03-23T07:23:07;17.67;;;9.15;;
42084;SDS011;27746;52.228;20.890;2023-03-23T07:25:34;17.50;;;9.70;;
42084;SDS011;27746;52.228;20.890;2023-03-23T07:28:01;14.25;;;9.20;;
42084;SDS011;27746;52.228;20.890;2023-03-23T07:30:29;19.98;;;9.38;;
42084;SDS011;27746;52.228;20.890;2023-03-23T07:32:56;18.25;;;10.35;;
42084;SDS011;27746;52.228;20.890;2023-03-23T07:35:24;17.58;;;8.63;;
42084;SDS011;27746;52.228;20.890;2023-03-23T07:37:52;17.60;;;9.25;;
42084;SDS011;27746;52.228;20.890;2023-03-23T07:40:20;17.45;;;9.52;;
42084;SDS011;27746;52.228;20.890;2023-03-23T07:42:55;17.00;;;8.93;;
42084;SDS011;27746;52.228;20.890;2023-03-23T07:45:23;15.40;;;9.10;;
42084;SDS011;27746;52.228;20.890;2023-03-23T07:47:50;15.93;;;8.32;;
42084;SDS011;27746;52.228;20.890;2023-03-23T07:50:18;16.30;;;7.55;;
42084;SDS011;27746;52.228;20.890;2023-03-23T07:52:47;14.65;;;7.68;;
42084;SDS011;27746;52.228;20.890;2023-03-23T07:55:15;11.65;;;7.38;;
42084;SDS011;27746;52.228;20.890;2023-03-23T07:57:43;14.30;;;7.97;;
42084;SDS011;27746;52.228;20.890;2023-03-23T08:00:12;13.55;;;6.68;;
42084;SDS011;27746;52.228;20.890;2023-03-23T08:02:44;13.93;;;8.13;;
42084;SDS011;27746;52.228;20.890;2023-03-23T08:05:11;15.70;;;7.97;;
42084;SDS011;27746;52.228;20.890;2023-03-23T08:07:39;13.18;;;7.53;;
42084;SDS011;27746;52.228;20.890;2023-03-23T08:10:07;16.38;;;7.72;;
42084;SDS011;27746;52.228;20.890;2023-03-23T08:12:38;14.23;;;7.60;;
42084;SDS011;27746;52.228;20.890;2023-03-23T08:15:06;13.13;;;6.65;;
42084;SDS011;27746;52.228;20.890;2023-03-23T08:17:34;12.00;;;6.90;;
42084;SDS011;27746;52.228;20.890;2023-03-23T08:20:02;12.57;;;7.00;;
42084;SDS011;27746;52.228;20.890;2023-03-23T08:22:35;13.88;;;6.70;;
42084;SDS011;27746;52.228;20.890;2023-03-23T08:25:03;13.93;;;6.90;;
42084;SDS011;27746;52.228;20.890;2023-03-23T08:27:32;16.45;;;7.57;;
42084;SDS011;27746;52.228;20.890;2023-03-23T08:30:01;14.23;;;6.45;;
42084;SDS011;27746;52.228;20.890;2023-03-23T08:32:30;13.70;;;7.03;;
42084;SDS011;27746;52.228;20.890;2023-03-23T08:34:57;10.98;;;6.05;;
42084;SDS011;27746;52.228;20.890;2023-03-23T08:37:25;16.50;;;7.30;;
42084;SDS011;27746;52.228;20.890;2023-03-23T08:39:53;16.63;;;6.60;;
42084;SDS011;27746;52.228;20.890;2023-03-23T08:42:22;13.70;;;6.72;;
42084;SDS011;27746;52.228;20.890;2023-03-23T08:44:50;12.50;;;6.40;;
42084;SDS011;27746;52.228;20.890;2023-03-23T08:47:18;14.15;;;5.75;;
42084;SDS011;27746;52.228;20.890;2023-03-23T08:49:45;15.07;;;6.82;;
42084;SDS011;27746;52.228;20.890;2023-03-23T08:52:17;12.98;;;6.38;;
42084;SDS011;27746;52.228;20.890;2023-03-23T08:54:46;12.90;;;6.13;;
42084;SDS011;27746;52.228;20.890;2023-03-23T08:57:13;26.40;;;7.35;;
42084;SDS011;27746;52.228;20.890;2023-03-23T08:59:41;17.73;;;6.40;;
42084;SDS011;27746;52.228;20.890;2023-03-23T09:02:09;11.48;;;5.45;;
42084;SDS011;27746;52.228;20.890;2023-03-23T09:04:39;8.07;;;4.60;;
42084;SDS011;27746;52.228;20.890;2023-03-23T09:07:07;8.82;;;5.13;;
42084;SDS011;27746;52.228;20.890;2023-03-23T09:09:35;10.05;;;4.78;;
42084;SDS011;27746;52.228;20.890;2023-03-23T09:12:04;9.05;;;4.45;;
42084;SDS011;27746;52.228;20.890;2023-03-23T09:14:32;8.65;;;4.38;;
42084;SDS011;27746;52.228;20.890;2023-03-23T09:16:59;11.13;;;5.18;;
42084;SDS011;27746;52.228;20.890;2023-03-23T09:19:27;10.48;;;5.40;;
42084;SDS011;27746;52.228;20.890;2023-03-23T09:21:56;10.18;;;5.07;;
42084;SDS011;27746;52.228;20.890;2023-03-23T09:24:23;8.43;;;4.88;;
42084;SDS011;27746;52.228;20.890;2023-03-23T09:26:50;9.23;;;4.60;;
42084;SDS011;27746;52.228;20.890;2023-03-23T09:29:17;8.25;;;4.43;;
42084;SDS011;27746;52.228;20.890;2023-03-23T09:31:46;17.80;;;5.35;;
42084;SDS011;27746;52.228;20.890;2023-03-23T09:34:13;8.02;;;4.25;;
42084;SDS011;27746;52.228;20.890;2023-03-23T09:36:41;7.28;;;4.60;;
42084;SDS011;27746;52.228;20.890;2023-03-23T09:39:10;10.88;;;3.92;;
42084;SDS011;27746;52.228;20.890;2023-03-23T09:41:57;8.40;;;4.30;;
42084;SDS011;27746;52.228;20.890;2023-03-23T09:44:37;8.23;;;4.18;;
42084;SDS011;27746;52.228;20.890;2023-03-23T09:47:18;13.40;;;4.88;;
42084;SDS011;27746;52.228;20.890;2023-03-23T09:49:52;14.45;;;4.55;;
42084;SDS011;27746;52.228;20.890;2023-03-23T09:52:26;8.52;;;3.88;;
42084;SDS011;27746;52.228;20.890;2023-03-23T09:55:02;13.25;;;5.00;;
42084;SDS011;27746;52.228;20.890;2023-03-23T09:57:31;9.20;;;3.25;;
42084;SDS011;27746;52.228;20.890;2023-03-23T10:00:06;9.45;;;3.72;;
42084;SDS011;27746;52.228;20.890;2023-03-23T10:02:41;7.95;;;3.85;;
42084;SDS011;27746;52.228;20.890;2023-03-23T10:05:29;10.32;;;3.55;;
42084;SDS011;27746;52.228;20.890;2023-03-23T10:07:58;9.80;;;3.70;;
42084;SDS011;27746;52.228;20.890;2023-03-23T10:10:35;6.93;;;3.78;;
42084;SDS011;27746;52.228;20.890;2023-03-23T10:13:14;9.60;;;3.10;;
42084;SDS011;27746;52.228;20.890;2023-03-23T10:15:46;7.20;;;3.17;;
42084;SDS011;27746;52.228;20.890;2023-03-23T10:18:15;7.25;;;3.70;;
42084;SDS011;27746;52.228;20.890;2023-03-23T10:20:47;7.50;;;3.00;;
42084;SDS011;27746;52.228;20.890;2023-03-23T10:23:32;8.37;;;3.83;;
42084;SDS011;27746;52.228;20.890;2023-03-23T10:26:11;5.25;;;3.55;;
42084;SDS011;27746;52.228;20.890;2023-03-23T10:28:47;8.52;;;3.83;;
42084;SDS011;27746;52.228;20.890;2023-03-23T10:31:19;9.23;;;3.92;;
42084;SDS011;27746;52.228;20.890;2023-03-23T10:33:50;6.47;;;3.08;;
42084;SDS011;27746;52.228;20.890;2023-03-23T10:36:23;10.27;;;3.83;;
42084;SDS011;27746;52.228;20.890;2023-03-23T10:39:05;10.40;;;4.10;;
42084;SDS011;27746;52.228;20.890;2023-03-23T10:44:09;9.38;;;3.70;;
42084;SDS011;27746;52.228;20.890;2023-03-23T10:46:43;8.23;;;3.70;;
42084;SDS011;27746;52.228;20.890;2023-03-23T10:49:13;9.02;;;4.13;;
42084;SDS011;27746;52.228;20.890;2023-03-23T10:51:53;8.48;;;3.70;;
42084;SDS011;27746;52.228;20.890;2023-03-23T10:54:27;6.18;;;3.58;;
42084;SDS011;27746;52.228;20.890;2023-03-23T10:57:11;8.45;;;3.53;;
42084;SDS011;27746;52.228;20.890;2023-03-23T10:59:41;6.22;;;3.10;;
42084;SDS011;27746;52.228;20.890;2023-03-23T11:02:14;5.28;;;3.10;;
42084;SDS011;27746;52.228;20.890;2023-03-23T11:04:47;4.38;;;2.60;;
42084;SDS011;27746;52.228;20.890;2023-03-23T11:07:24;5.65;;;2.97;;
42084;SDS011;27746;52.228;20.890;2023-03-23T11:09:54;8.15;;;3.25;;
42084;SDS011;27746;52.228;20.890;2023-03-23T11:12:24;9.80;;;3.67;;
42084;SDS011;27746;52.228;20.890;2023-03-23T11:15:03;4.80;;;2.55;;
42084;SDS011;27746;52.228;20.890;2023-03-23T11:17:54;6.97;;;2.78;;
42084;SDS011;27746;52.228;20.890;2023-03-23T11:20:23;8.80;;;2.80;;
42084;SDS011;27746;52.228;20.890;2023-03-23T11:22:51;5.93;;;2.47;;
42084;SDS011;27746;52.228;20.890;2023-03-23T11:25:19;5.13;;;2.65;;
42084;SDS011;27746;52.228;20.890;2023-03-23T11:27:49;4.97;;;2.55;;
42084;SDS011;27746;52.228;20.890;2023-03-23T11:30:21;4.63;;;2.30;;
42084;SDS011;27746;52.228;20.890;2023-03-23T11:32:52;7.72;;;2.83;;
42084;SDS011;27746;52.228;20.890;2023-03-23T11:35:21;5.97;;;2.65;;
42084;SDS011;27746;52.228;20.890;2023-03-23T11:37:51;9.18;;;2.78;;
42084;SDS011;27746;52.228;20.890;2023-03-23T11:40:21;9.23;;;2.72;;
42084;SDS011;27746;52.228;20.890;2023-03-23T11:42:57;4.00;;;2.45;;
42084;SDS011;27746;52.228;20.890;2023-03-23T11:45:30;7.90;;;2.70;;
42084;SDS011;27746;52.228;20.890;2023-03-23T11:50:50;5.68;;;2.60;;
42084;SDS011;27746;52.228;20.890;2023-03-23T11:53:22;5.90;;;2.20;;
42084;SDS011;27746;52.228;20.890;2023-03-23T11:55:59;7.97;;;2.50;;
42084;SDS011;27746;52.228;20.890;2023-03-23T11:58:34;6.05;;;2.40;;
42084;SDS011;27746;52.228;20.890;2023-03-23T12:01:04;3.92;;;2.35;;
42084;SDS011;27746;52.228;20.890;2023-03-23T12:06:35;6.10;;;2.05;;
42084;SDS011;27746;52.228;20.890;2023-03-23T12:09:13;4.97;;;2.55;;
42084;SDS011;27746;52.228;20.890;2023-03-23T12:11:52;5.40;;;2.65;;
42084;SDS011;27746;52.228;20.890;2023-03-23T12:14:33;5.25;;;2.75;;
42084;SDS011;27746;52.228;20.890;2023-03-23T12:17:11;6.28;;;2.40;;
42084;SDS011;27746;52.228;20.890;2023-03-23T12:19:49;6.38;;;2.30;;
42084;SDS011;27746;52.228;20.890;2023-03-23T12:22:33;8.40;;;3.35;;
42084;SDS011;27746;52.228;20.890;2023-03-23T12:25:13;9.20;;;2.90;;
42084;SDS011;27746;52.228;20.890;2023-03-23T12:27:58;7.10;;;3.05;;
42084;SDS011;27746;52.228;20.890;2023-03-23T12:30:35;8.00;;;3.28;;
42084;SDS011;27746;52.228;20.890;2023-03-23T12:33:11;10.48;;;3.38;;
42084;SDS011;27746;52.228;20.890;2023-03-23T12:35:56;7.13;;;2.97;;
42084;SDS011;27746;52.228;20.890;2023-03-23T12:38:47;6.90;;;3.08;;
42084;SDS011;27746;52.228;20.890;2023-03-23T12:41:32;7.72;;;3.85;;
42084;SDS011;27746;52.228;20.890;2023-03-23T12:44:08;5.72;;;3.35;;
42084;SDS011;27746;52.228;20.890;2023-03-23T12:46:42;7.88;;;3.67;;
42084;SDS011;27746;52.228;20.890;2023-03-23T12:49:19;9.07;;;4.00;;
42084;SDS011;27746;52.228;20.890;2023-03-23T12:51:51;8.25;;;4.72;;
42084;SDS011;27746;52.228;20.890;2023-03-23T12:56:54;7.15;;;3.30;;
42084;SDS011;27746;52.228;20.890;2023-03-23T12:59:26;6.65;;;3.50;;
42084;SDS011;27746;52.228;20.890;2023-03-23T13:02:01;12.63;;;3.60;;
42084;SDS011;27746;52.228;20.890;2023-03-23T13:04:36;9.93;;;3.35;;
42084;SDS011;27746;52.228;20.890;2023-03-23T13:07:08;7.20;;;3.60;;
42084;SDS011;27746;52.228;20.890;2023-03-23T13:09:45;9.32;;;4.00;;
42084;SDS011;27746;52.228;20.890;2023-03-23T13:12:16;8.98;;;3.92;;
42084;SDS011;27746;52.228;20.890;2023-03-23T13:14:45;5.90;;;3.47;;
42084;SDS011;27746;52.228;20.890;2023-03-23T13:17:28;5.57;;;3.42;;
42084;SDS011;27746;52.228;20.890;2023-03-23T13:20:11;6.28;;;3.88;;
42084;SDS011;27746;52.228;20.890;2023-03-23T13:22:52;10.00;;;4.40;;
42084;SDS011;27746;52.228;20.890;2023-03-23T13:25:28;8.68;;;3.97;;
42084;SDS011;27746;52.228;20.890;2023-03-23T13:28:12;11.07;;;4.45;;
42084;SDS011;27746;52.228;20.890;2023-03-23T13:30:59;8.25;;;3.33;;
42084;SDS011;27746;52.228;20.890;2023-03-23T13:33:30;5.97;;;3.30;;
42084;SDS011;27746;52.228;20.890;2023-03-23T13:36:04;6.57;;;2.95;;
42084;SDS011;27746;52.228;20.890;2023-03-23T13:38:37;7.70;;;2.80;;
42084;SDS011;27746;52.228;20.890;2023-03-23T13:41:11;10.13;;;3.40;;
42084;SDS011;27746;52.228;20.890;2023-03-23T13:43:40;7.10;;;2.80;;
42084;SDS011;27746;52.228;20.890;2023-03-23T13:46:11;5.05;;;2.95;;
42084;SDS011;27746;52.228;20.890;2023-03-23T13:49:04;9.63;;;2.80;;
42084;SDS011;27746;52.228;20.890;2023-03-23T13:54:43;6.45;;;3.10;;
42084;SDS011;27746;52.228;20.890;2023-03-23T13:57:24;6.22;;;2.65;;
42084;SDS011;27746;52.228;20.890;2023-03-23T14:00:25;5.25;;;2.60;;
42084;SDS011;27746;52.228;20.890;2023-03-23T14:03:01;7.38;;;3.00;;
42084;SDS011;27746;52.228;20.890;2023-03-23T14:05:35;7.18;;;2.95;;
42084;SDS011;27746;52.228;20.890;2023-03-23T14:08:10;15.80;;;3.55;;
42084;SDS011;27746;52.228;20.890;2023-03-23T14:10:40;8.20;;;2.83;;
42084;SDS011;27746;52.228;20.890;2023-03-23T14:13:11;9.02;;;3.33;;
42084;SDS011;27746;52.228;20.890;2023-03-23T14:15:43;7.63;;;3.15;;
42084;SDS011;27746;52.228;20.890;2023-03-23T14:18:13;9.32;;;3.45;;
42084;SDS011;27746;52.228;20.890;2023-03-23T14:20:45;9.18;;;4.07;;
42084;SDS011;27746;52.228;20.890;2023-03-23T14:23:16;9.05;;;3.80;;
42084;SDS011;27746;52.228;20.890;2023-03-23T14:25:44;9.93;;;4.30;;
42084;SDS011;27746;52.228;20.890;2023-03-23T14:28:21;8.75;;;3.65;;
42084;SDS011;27746;52.228;20.890;2023-03-23T14:30:49;10.23;;;4.25;;
42084;SDS011;27746;52.228;20.890;2023-03-23T14:33:19;8.43;;;3.88;;
42084;SDS011;27746;52.228;20.890;2023-03-23T14:35:48;8.57;;;4.53;;
42084;SDS011;27746;52.228;20.890;2023-03-23T14:38:16;15.48;;;4.55;;
42084;SDS011;27746;52.228;20.890;2023-03-23T14:40:48;9.70;;;4.43;;
42084;SDS011;27746;52.228;20.890;2023-03-23T14:43:16;8.85;;;4.25;;
42084;SDS011;27746;52.228;20.890;2023-03-23T14:45:46;10.02;;;3.60;;
42084;SDS011;27746;52.228;20.890;2023-03-23T14:48:15;10.75;;;3.75;;
42084;SDS011;27746;52.228;20.890;2023-03-23T14:50:50;8.90;;;4.15;;
42084;SDS011;27746;52.228;20.890;2023-03-23T14:53:19;13.73;;;5.32;;
42084;SDS011;27746;52.228;20.890;2023-03-23T14:55:49;12.75;;;3.75;;
42084;SDS011;27746;52.228;20.890;2023-03-23T14:58:18;16.00;;;5.50;;
42084;SDS011;27746;52.228;20.890;2023-03-23T15:00:47;10.82;;;3.97;;